createdAt,value
2022-10-02T00:00:34.241Z,99722.84
2022-10-02T00:03:06.261Z,99717.56
2022-10-02T00:05:36.331Z,99707.97
2022-10-02T00:08:04.856Z,99712.31
2022-10-02T00:10:34.120Z,99719.34
2022-10-02T00:13:03.111Z,99728.94
2022-10-02T00:15:32.113Z,99720.94
2022-10-02T00:18:02.676Z,99726.97
2022-10-02T00:20:35.236Z,99698.44
2022-10-02T00:23:04.015Z,99680.00
2022-10-02T00:25:34.457Z,99722.13
2022-10-02T00:28:20.912Z,99732.38
2022-10-02T00:31:04.080Z,99720.00
2022-10-02T00:33:34.434Z,99726.78
2022-10-02T00:36:09.531Z,99702.63
2022-10-02T00:38:44.388Z,99723.13
2022-10-02T00:41:32.800Z,99701.53
2022-10-02T00:44:17.325Z,99724.69
2022-10-02T00:46:48.230Z,99671.09
2022-10-02T00:49:36.066Z,99727.97
2022-10-02T00:52:25.435Z,99722.56
2022-10-02T00:55:06.286Z,99728.78
2022-10-02T00:57:42.016Z,99723.34
2022-10-02T01:00:10.840Z,99737.25
2022-10-02T01:03:04.082Z,99737.97
2022-10-02T01:05:31.684Z,99734.50
2022-10-02T01:08:00.805Z,99741.47
2022-10-02T01:10:28.425Z,99735.19
2022-10-02T01:12:56.462Z,99734.44
2022-10-02T01:15:25.025Z,99748.28
2022-10-02T01:17:52.869Z,99732.44
2022-10-02T01:20:23.590Z,99730.09
2022-10-02T01:22:54.540Z,99736.03
2022-10-02T01:25:23.664Z,99736.84
2022-10-02T01:27:51.539Z,99735.91
2022-10-02T01:30:20.133Z,99743.69
2022-10-02T01:32:50.153Z,99730.50
2022-10-02T01:35:18.049Z,99743.53
2022-10-02T01:37:45.589Z,99738.22
2022-10-02T01:40:26.159Z,99745.25
2022-10-02T01:42:53.770Z,99748.81
2022-10-02T01:45:23.367Z,99743.56
2022-10-02T01:47:52.674Z,99738.25
2022-10-02T01:50:23.605Z,99754.06
2022-10-02T01:52:54.404Z,99753.03
2022-10-02T01:55:28.251Z,99758.31
2022-10-02T01:58:01.018Z,99751.34
2022-10-02T02:00:29.173Z,99750.25
2022-10-02T02:02:59.260Z,99747.63
2022-10-02T02:05:36.643Z,99748.47
2022-10-02T02:08:08.403Z,99751.06
2022-10-02T02:10:42.956Z,99747.59
2022-10-02T02:13:12.600Z,99749.41
2022-10-02T02:15:41.541Z,99748.53
2022-10-02T02:18:12.127Z,99736.41
2022-10-02T02:20:43.757Z,99745.84
2022-10-02T02:23:19.082Z,99738.44
2022-10-02T02:25:50.444Z,99752.91
2022-10-02T02:28:19.610Z,99752.84
2022-10-02T02:30:47.643Z,99721.63
2022-10-02T02:33:17.972Z,99743.09
2022-10-02T02:35:47.283Z,99737.84
2022-10-02T02:38:17.528Z,99750.84
2022-10-02T02:40:45.254Z,99750.84
2022-10-02T02:43:16.154Z,99711.22
2022-10-02T02:45:45.794Z,99743.84
2022-10-02T02:48:15.773Z,99732.38
2022-10-02T02:50:45.183Z,99740.25
2022-10-02T02:53:13.972Z,99738.44
2022-10-02T02:55:45.161Z,99728.19
2022-10-02T02:58:16.145Z,99698.78
2022-10-02T03:00:43.762Z,99741.13
2022-10-02T03:03:11.619Z,99746.53
2022-10-02T03:05:40.467Z,99763.31
2022-10-02T03:08:19.210Z,99744.13
2022-10-02T03:10:51.649Z,99750.91
2022-10-02T03:13:29.307Z,99758.75
2022-10-02T03:16:04.975Z,99749.91
2022-10-02T03:18:51.053Z,99761.16
2022-10-02T03:21:20.989Z,99749.78
2022-10-02T03:23:58.735Z,99747.31
2022-10-02T03:26:31.153Z,99736.69
2022-10-02T03:29:00.656Z,99727.13
2022-10-02T03:31:29.494Z,99744.34
2022-10-02T03:33:57.721Z,99745.16
2022-10-02T03:36:25.467Z,99741.50
2022-10-02T03:39:12.511Z,99745.91
2022-10-02T03:41:40.968Z,99738.81
2022-10-02T03:44:10.044Z,99738.00
2022-10-02T03:46:37.867Z,99736.16
2022-10-02T03:49:05.889Z,99726.56
2022-10-02T03:51:33.453Z,99729.91
2022-10-02T03:54:01.154Z,99726.50
2022-10-02T03:56:34.537Z,99734.44
2022-10-02T03:59:02.694Z,99732.41
2022-10-02T04:01:33.384Z,99729.91
2022-10-02T04:04:03.094Z,99746.53
2022-10-02T04:06:38.170Z,99704.25
2022-10-02T04:09:07.593Z,99744.91
2022-10-02T04:11:37.295Z,99752.16
2022-10-02T04:14:07.046Z,99754.03
2022-10-02T04:16:37.995Z,99721.28
2022-10-02T04:19:08.457Z,99756.25
2022-10-02T04:21:37.754Z,99761.69
2022-10-02T04:24:10.522Z,99768.75
2022-10-02T04:26:40.150Z,99725.59
2022-10-02T04:29:12.921Z,99760.19
2022-10-02T04:31:42.300Z,99763.84
2022-10-02T04:34:11.413Z,99745.06
2022-10-02T04:36:43.283Z,99741.31
2022-10-02T04:39:49.887Z,99760.34
2022-10-02T04:42:23.757Z,99765.72
2022-10-02T04:44:59.249Z,99767.63
2022-10-02T04:47:43.124Z,99734.88
2022-10-02T04:50:18.734Z,99781.84
2022-10-02T04:52:57.863Z,99775.75
2022-10-02T04:55:40.510Z,99771.53
2022-10-02T04:58:21.462Z,99771.47
2022-10-02T05:00:50.469Z,99758.47
2022-10-02T05:03:27.648Z,99711.69
2022-10-02T05:06:01.015Z,99758.53
2022-10-02T05:08:39.389Z,99749.81
2022-10-02T05:11:13.870Z,99754.34
2022-10-02T05:13:59.599Z,99755.25
2022-10-02T05:19:04.573Z,99784.41
2022-10-02T05:21:43.613Z,99778.31
2022-10-02T05:24:23.198Z,99771.09
2022-10-02T05:27:13.846Z,99782.84
2022-10-02T05:29:58.974Z,99779.31
2022-10-02T05:32:42.973Z,99781.94
2022-10-02T05:35:20.547Z,99786.34
2022-10-02T05:37:54.001Z,99776.75
2022-10-02T05:40:25.100Z,99760.53
2022-10-02T05:42:57.023Z,99784.63
2022-10-02T05:45:27.598Z,99797.72
2022-10-02T05:47:56.649Z,99792.41
2022-10-02T05:50:27.345Z,99787.06
2022-10-02T05:52:56.162Z,99787.91
2022-10-02T05:55:25.687Z,99778.97
2022-10-02T05:57:53.965Z,99773.06
2022-10-02T06:00:27.223Z,99787.97
2022-10-02T06:02:57.932Z,99780.53
2022-10-02T06:05:28.736Z,99777.06
2022-10-02T06:07:58.382Z,99778.59
2022-10-02T06:10:28.060Z,99773.69
2022-10-02T06:12:58.456Z,99797.75
2022-10-02T06:15:27.802Z,99803.75
2022-10-02T06:17:56.789Z,99809.72
2022-10-02T06:20:26.868Z,99811.41
2022-10-02T06:22:56.508Z,99814.03
2022-10-02T06:25:26.436Z,99828.84
2022-10-02T06:27:56.493Z,99794.81
2022-10-02T06:30:24.094Z,99831.22
2022-10-02T06:32:55.222Z,99815.22
2022-10-02T06:35:33.240Z,99830.03
2022-10-02T06:38:07.089Z,99825.50
2022-10-02T06:40:46.659Z,99828.94
2022-10-02T06:43:24.943Z,99837.50
2022-10-02T06:45:58.602Z,99839.25
2022-10-02T06:48:26.736Z,99844.34
2022-10-02T06:50:59.044Z,99805.41
2022-10-02T06:53:37.404Z,99829.69
2022-10-02T06:56:11.691Z,99848.72
2022-10-02T06:58:47.462Z,99843.53
2022-10-02T07:01:20.838Z,99845.06
2022-10-02T07:04:05.098Z,99870.53
2022-10-02T07:06:40.208Z,99848.75
2022-10-02T07:09:21.722Z,99857.22
2022-10-02T07:11:52.940Z,99863.31
2022-10-02T07:14:47.746Z,99865.75
2022-10-02T07:17:31.139Z,99849.38
2022-10-02T07:20:11.014Z,99857.97
2022-10-02T07:22:49.265Z,99867.34
2022-10-02T07:25:35.442Z,99871.53
2022-10-02T07:28:07.233Z,99874.00
2022-10-02T07:30:38.566Z,99855.47
2022-10-02T07:33:09.208Z,99833.97
2022-10-02T07:35:41.970Z,99868.50
2022-10-02T07:38:19.902Z,99869.19
2022-10-02T07:40:51.835Z,99873.50
2022-10-02T07:43:33.492Z,99875.09
2022-10-02T07:46:03.921Z,99847.31
2022-10-02T07:48:38.791Z,99862.94
2022-10-02T07:51:30.847Z,99890.69
2022-10-02T07:54:03.948Z,99901.84
2022-10-02T07:56:31.765Z,99898.00
2022-10-02T07:59:01.060Z,99865.38
2022-10-02T08:01:30.298Z,99903.84
2022-10-02T08:03:59.753Z,99910.63
2022-10-02T08:06:27.837Z,99906.75
2022-10-02T08:08:57.676Z,99901.00
2022-10-02T08:11:30.310Z,99854.94
2022-10-02T08:13:59.192Z,99899.47
2022-10-02T08:16:32.355Z,99901.44
2022-10-02T08:19:01.415Z,99884.84
2022-10-02T08:21:29.101Z,99909.50
2022-10-02T08:23:59.272Z,99915.66
2022-10-02T08:26:35.194Z,99912.16
2022-10-02T08:29:06.478Z,99916.41
2022-10-02T08:31:34.222Z,99915.31
2022-10-02T08:34:02.298Z,99914.34
2022-10-02T08:36:58.278Z,99915.03
2022-10-02T08:39:46.138Z,99922.97
2022-10-02T08:42:32.111Z,99927.41
2022-10-02T08:45:29.074Z,99918.13
2022-10-02T08:48:23.551Z,99919.63
2022-10-02T08:51:09.363Z,99937.56
2022-10-02T08:54:18.502Z,99923.34
2022-10-02T08:57:01.549Z,99917.16
2022-10-02T08:59:52.604Z,99927.53
2022-10-02T09:03:07.904Z,99922.22
2022-10-02T09:06:07.770Z,99926.31
2022-10-02T09:08:59.935Z,99928.78
2022-10-02T09:11:50.277Z,99928.56
2022-10-02T09:14:30.951Z,99926.03
2022-10-02T09:17:16.671Z,99930.50
2022-10-02T09:19:50.684Z,99930.00
2022-10-02T09:22:35.057Z,99934.69
2022-10-02T09:25:14.136Z,99894.88
2022-10-02T09:28:08.601Z,99933.06
2022-10-02T09:30:47.808Z,99939.41
2022-10-02T09:33:47.264Z,99938.78
2022-10-02T09:36:52.023Z,99939.75
2022-10-02T09:39:51.614Z,99942.66
2022-10-02T09:42:46.697Z,99917.84
2022-10-02T09:45:41.015Z,99949.56
2022-10-02T09:48:51.283Z,99954.03
2022-10-02T09:51:53.129Z,99958.28
2022-10-02T09:54:57.966Z,99953.31
2022-10-02T09:58:06.204Z,99951.56
2022-10-02T10:00:49.753Z,99924.25
2022-10-02T10:03:36.356Z,99957.69
2022-10-02T10:06:29.466Z,99953.00
2022-10-02T10:09:15.407Z,99957.69
2022-10-02T10:12:26.617Z,99964.06
2022-10-02T10:15:18.530Z,99948.53
2022-10-02T10:18:21.152Z,99960.94
2022-10-02T10:21:46.829Z,99960.53
2022-10-02T10:24:33.950Z,99954.84
2022-10-02T10:27:14.519Z,99968.38
2022-10-02T10:30:22.269Z,99976.22
2022-10-02T10:33:25.283Z,99985.72
2022-10-02T10:36:33.556Z,99989.00
2022-10-02T10:39:08.475Z,99986.03
2022-10-02T10:41:49.489Z,99985.25
2022-10-02T10:44:42.001Z,99956.44
2022-10-02T10:47:34.659Z,99990.00
2022-10-02T10:50:47.923Z,99961.22
2022-10-02T10:53:39.097Z,99961.91
2022-10-02T10:56:29.178Z,99992.25
2022-10-02T10:59:25.265Z,99997.91
2022-10-02T11:02:02.580Z,99994.28
2022-10-02T11:04:54.439Z,99995.91
2022-10-02T11:07:35.070Z,100004.91
2022-10-02T11:10:12.074Z,100004.56
2022-10-02T11:13:03.075Z,100005.78
2022-10-02T11:15:59.198Z,100012.41
2022-10-02T11:18:34.540Z,99997.34
2022-10-02T11:21:32.637Z,100016.19
2022-10-02T11:24:29.223Z,100016.75
2022-10-02T11:27:05.754Z,99988.34
2022-10-02T11:30:10.268Z,100010.66
2022-10-02T11:32:54.312Z,100002.16
2022-10-02T11:35:29.334Z,100020.38
2022-10-02T11:38:36.963Z,100022.91
2022-10-02T11:41:20.653Z,100003.78
2022-10-02T11:44:09.567Z,100016.84
2022-10-02T11:47:01.374Z,100022.00
2022-10-02T11:49:37.297Z,100018.84
2022-10-02T11:52:27.285Z,100008.13
2022-10-02T11:55:00.755Z,100028.06
2022-10-02T11:57:33.027Z,100018.03
2022-10-02T12:00:14.758Z,100026.34
2022-10-02T12:02:47.697Z,100018.44
2022-10-02T12:05:25.468Z,100012.59
2022-10-02T12:07:58.303Z,100035.34
2022-10-02T12:10:46.906Z,100018.88
2022-10-02T12:13:24.576Z,100019.41
2022-10-02T12:15:56.238Z,100024.53
2022-10-02T12:18:38.754Z,100040.72
2022-10-02T12:21:31.700Z,100034.56
2022-10-02T12:24:20.364Z,100035.59
2022-10-02T12:27:00.205Z,100034.16
2022-10-02T12:29:35.761Z,100027.31
2022-10-02T12:32:08.129Z,100029.41
2022-10-02T12:34:42.330Z,100022.66
2022-10-02T12:37:12.199Z,100024.91
2022-10-02T12:39:45.030Z,100038.00
2022-10-02T12:42:26.682Z,100035.34
2022-10-02T12:47:40.171Z,100035.06
2022-10-02T12:50:24.273Z,100029.78
2022-10-02T12:53:30.716Z,100023.41
2022-10-02T12:56:34.258Z,100026.66
2022-10-02T12:59:05.107Z,99972.53
2022-10-02T13:02:42.889Z,100032.41
2022-10-02T13:05:47.432Z,100034.09
2022-10-02T13:08:37.866Z,100034.44
2022-10-02T13:11:10.304Z,100030.53
2022-10-02T13:13:55.255Z,100016.03
2022-10-02T13:16:26.551Z,100029.06
2022-10-02T13:19:10.323Z,100028.63
2022-10-02T13:21:47.288Z,100023.63
2022-10-02T13:24:28.458Z,100030.38
2022-10-02T13:26:58.921Z,100028.22
2022-10-02T13:29:40.487Z,100031.66
2022-10-02T13:32:22.634Z,100040.81
2022-10-02T13:34:58.641Z,100028.66
2022-10-02T13:37:33.095Z,99981.66
2022-10-02T13:40:21.393Z,100033.59
2022-10-02T13:43:04.292Z,100032.13
2022-10-02T13:45:34.341Z,100002.22
2022-10-02T13:48:05.694Z,100036.94
2022-10-02T13:50:45.093Z,100010.91
2022-10-02T13:53:45.434Z,100021.53
2022-10-02T13:56:21.575Z,100043.97
2022-10-02T13:59:05.221Z,100042.25
2022-10-02T14:01:36.943Z,100039.28
2022-10-02T14:04:14.158Z,100049.38
2022-10-02T14:06:43.697Z,100053.63
2022-10-02T14:09:18.920Z,100048.25
2022-10-02T14:11:56.316Z,100006.94
2022-10-02T14:14:30.038Z,100053.13
2022-10-02T14:17:03.128Z,100059.41
2022-10-02T14:19:56.409Z,100054.78
2022-10-02T14:22:33.762Z,100068.91
2022-10-02T14:25:23.142Z,100061.59
2022-10-02T14:28:23.035Z,100054.72
2022-10-02T14:30:57.776Z,100062.19
2022-10-02T14:33:30.896Z,100064.63
2022-10-02T14:36:01.126Z,100072.69
2022-10-02T14:38:35.347Z,100069.25
2022-10-02T14:41:10.771Z,100064.19
2022-10-02T14:43:47.157Z,100076.50
2022-10-02T14:46:39.314Z,100084.28
2022-10-02T14:49:30.403Z,100066.22
2022-10-02T14:52:05.812Z,100083.72
2022-10-02T14:54:41.832Z,100086.75
2022-10-02T14:57:21.167Z,100086.84
2022-10-02T15:00:13.648Z,100085.13
2022-10-02T15:03:07.706Z,100084.31
2022-10-02T15:05:41.850Z,100091.75
2022-10-02T15:08:13.757Z,100095.44
2022-10-02T15:10:42.371Z,100038.91
2022-10-02T15:13:13.467Z,100090.13
2022-10-02T15:15:42.323Z,100087.97
2022-10-02T15:18:20.132Z,100091.84
2022-10-02T15:20:59.329Z,100092.06
2022-10-02T15:23:44.186Z,100098.56
2022-10-02T15:26:34.033Z,100111.66
2022-10-02T15:29:10.913Z,100108.97
2022-10-02T15:31:41.201Z,100115.09
2022-10-02T15:34:15.788Z,100109.72
2022-10-02T15:36:50.129Z,100110.31
2022-10-02T15:39:30.878Z,100052.34
2022-10-02T15:42:04.828Z,100112.38
2022-10-02T15:44:58.564Z,100130.38
2022-10-02T15:47:42.872Z,100127.44
2022-10-02T15:50:18.577Z,100130.41
2022-10-02T15:52:51.135Z,100131.59
2022-10-02T15:55:21.674Z,100128.31
2022-10-02T15:58:14.041Z,100132.03
2022-10-02T16:01:01.644Z,100128.00
2022-10-02T16:03:32.822Z,100135.13
2022-10-02T16:06:02.069Z,100139.69
2022-10-02T16:08:45.153Z,100138.28
2022-10-02T16:11:24.815Z,100141.06
2022-10-02T16:13:54.239Z,100145.66
2022-10-02T16:16:47.356Z,100153.56
2022-10-02T16:19:19.108Z,100135.44
2022-10-02T16:21:55.228Z,100154.00
2022-10-02T16:24:39.437Z,100150.50
2022-10-02T16:27:23.249Z,100161.31
2022-10-02T16:30:02.355Z,100167.94
2022-10-02T16:32:34.269Z,100169.97
2022-10-02T16:35:17.622Z,100164.81
2022-10-02T16:37:46.609Z,100175.81
2022-10-02T16:40:26.793Z,100180.59
2022-10-02T16:43:14.240Z,100179.97
2022-10-02T16:45:54.243Z,100181.28
2022-10-02T16:48:24.445Z,100182.63
2022-10-02T16:51:11.535Z,100194.16
2022-10-02T16:53:42.723Z,100198.09
2022-10-02T16:56:12.301Z,100143.81
2022-10-02T16:58:43.916Z,100209.25
2022-10-02T17:01:23.694Z,100218.31
2022-10-02T17:04:23.482Z,100224.59
2022-10-02T17:06:53.466Z,100230.28
2022-10-02T17:09:23.784Z,100232.25
2022-10-02T17:11:53.320Z,100245.75
2022-10-02T17:14:23.120Z,100245.09
2022-10-02T17:16:55.660Z,100245.66
2022-10-02T17:19:27.151Z,100256.19
2022-10-02T17:21:56.385Z,100209.66
2022-10-02T17:24:32.359Z,100258.41
2022-10-02T17:27:08.679Z,100220.75
2022-10-02T17:29:39.256Z,100280.75
2022-10-02T17:32:09.321Z,100280.09
2022-10-02T17:34:46.397Z,100294.34
2022-10-02T17:37:44.755Z,100291.91
2022-10-02T17:40:13.930Z,100304.38
2022-10-02T17:45:29.017Z,100298.94
2022-10-02T17:48:21.834Z,100302.69
2022-10-02T17:51:31.020Z,100320.00
2022-10-02T17:54:23.405Z,100302.25
2022-10-02T17:57:17.794Z,100336.16
2022-10-02T18:00:03.520Z,100336.28
2022-10-02T18:03:05.266Z,100346.94
2022-10-02T18:05:38.002Z,100325.44
2022-10-02T18:08:18.054Z,100320.34
2022-10-02T18:10:49.887Z,100355.22
2022-10-02T18:13:23.553Z,100360.50
2022-10-02T18:16:09.175Z,100343.19
2022-10-02T18:18:39.907Z,100364.97
2022-10-02T18:21:24.071Z,100333.84
2022-10-02T18:24:02.747Z,100360.06
2022-10-02T18:26:35.316Z,100375.03
2022-10-02T18:29:26.844Z,100382.16
2022-10-02T18:32:08.689Z,100369.47
2022-10-02T18:34:45.695Z,100401.03
2022-10-02T18:37:24.924Z,100402.03
2022-10-02T18:40:04.831Z,100401.31
2022-10-02T18:42:52.668Z,100391.78
2022-10-02T18:45:29.397Z,100393.66
2022-10-02T18:50:40.491Z,100404.41
2022-10-02T18:53:21.672Z,100402.94
2022-10-02T18:56:03.571Z,100417.09
2022-10-02T18:58:52.601Z,100426.66
2022-10-02T19:01:42.659Z,100423.41
2022-10-02T19:04:22.995Z,100435.72
2022-10-02T19:06:52.227Z,100435.81
2022-10-02T19:09:23.101Z,100430.66
2022-10-02T19:11:56.736Z,100430.75
2022-10-02T19:14:30.049Z,100435.19
2022-10-02T19:16:58.845Z,100440.53
2022-10-02T19:19:27.827Z,100453.75
2022-10-02T19:21:59.281Z,100448.56
2022-10-02T19:24:28.328Z,100440.81
2022-10-02T19:26:59.539Z,100457.50
2022-10-02T19:29:30.491Z,100462.81
2022-10-02T19:31:59.630Z,100464.63
2022-10-02T19:34:28.784Z,100462.06
2022-10-02T19:36:58.773Z,100465.66
2022-10-02T19:39:30.513Z,100466.56
2022-10-02T19:42:03.025Z,100477.19
2022-10-02T19:44:32.846Z,100486.84
2022-10-02T19:47:02.293Z,100486.03
2022-10-02T19:49:32.204Z,100446.84
2022-10-02T19:51:59.786Z,100493.13
2022-10-02T19:54:28.486Z,100498.47
2022-10-02T19:56:57.821Z,100440.06
2022-10-02T19:59:28.703Z,100447.94
2022-10-02T20:01:58.025Z,100514.31
2022-10-02T20:04:26.949Z,100501.19
2022-10-02T20:06:56.558Z,100506.47
2022-10-02T20:09:27.277Z,100511.88
2022-10-02T20:11:56.004Z,100501.41
2022-10-02T20:14:25.105Z,100521.53
2022-10-02T20:17:16.855Z,100517.19
2022-10-02T20:19:46.759Z,100522.47
2022-10-02T20:22:19.163Z,100513.88
2022-10-02T20:24:50.588Z,100533.03
2022-10-02T20:27:20.477Z,100524.25
2022-10-02T20:29:50.335Z,100496.34
2022-10-02T20:32:21.707Z,100540.00
2022-10-02T20:34:53.410Z,100546.97
2022-10-02T20:37:23.106Z,100553.03
2022-10-02T20:39:55.191Z,100559.13
2022-10-02T20:42:27.249Z,100564.41
2022-10-02T20:44:54.974Z,100565.28
2022-10-02T20:47:50.279Z,100559.09
2022-10-02T20:50:40.409Z,100568.78
2022-10-02T20:53:31.016Z,100569.66
2022-10-02T20:56:00.715Z,100570.56
2022-10-02T20:58:36.029Z,100575.88
2022-10-02T21:01:13.401Z,100579.41
2022-10-02T21:03:55.576Z,100579.50
2022-10-02T21:06:39.199Z,100599.69
2022-10-02T21:09:47.777Z,100595.31
2022-10-02T21:12:33.460Z,100590.09
2022-10-02T21:15:41.292Z,100589.22
2022-10-02T21:18:50.733Z,100606.84
2022-10-02T21:21:40.370Z,100600.72
2022-10-02T21:24:21.053Z,100605.19
2022-10-02T21:27:08.154Z,100622.75
2022-10-02T21:29:53.941Z,100613.16
2022-10-02T21:32:31.807Z,100614.03
2022-10-02T21:35:16.827Z,100614.91
2022-10-02T21:37:58.420Z,100617.59
2022-10-02T21:40:56.122Z,100597.50
2022-10-02T21:44:05.753Z,100617.63
2022-10-02T21:46:54.683Z,100627.31
2022-10-02T21:49:42.839Z,100608.13
2022-10-02T21:52:58.675Z,100624.75
2022-10-02T21:55:41.294Z,100617.84
2022-10-02T21:58:39.593Z,100639.66
2022-10-02T22:01:27.836Z,100648.50
2022-10-02T22:04:19.865Z,100647.63
2022-10-02T22:06:54.505Z,100649.38
2022-10-02T22:09:32.889Z,100654.66
2022-10-02T22:12:11.587Z,100658.19
2022-10-02T22:14:40.486Z,100660.81
2022-10-02T22:17:13.969Z,100665.22
2022-10-02T22:19:51.712Z,100673.97
2022-10-02T22:22:25.432Z,100669.59
2022-10-02T22:25:02.594Z,100662.63
2022-10-02T22:27:47.480Z,100639.94
2022-10-02T22:30:23.877Z,100695.91
2022-10-02T22:33:13.058Z,100687.13
2022-10-02T22:35:52.706Z,100689.78
2022-10-02T22:38:22.569Z,100691.56
2022-10-02T22:40:52.361Z,100681.03
2022-10-02T22:43:25.592Z,100698.56
2022-10-02T22:45:55.684Z,100689.84
2022-10-02T22:48:27.904Z,100702.97
2022-10-02T22:50:56.734Z,100700.38
2022-10-02T22:53:26.924Z,100703.84
2022-10-02T22:55:55.350Z,100704.75
2022-10-02T22:58:30.268Z,100700.38
2022-10-02T23:01:01.939Z,100709.13
2022-10-02T23:03:37.464Z,100700.34
2022-10-02T23:06:06.049Z,100708.25
2022-10-02T23:08:35.990Z,100700.38
2022-10-02T23:11:08.318Z,100708.25
2022-10-02T23:13:38.626Z,100698.59
2022-10-02T23:16:07.619Z,100705.66
2022-10-02T23:18:39.557Z,100693.38
2022-10-02T23:21:23.951Z,100696.00
2022-10-02T23:23:55.842Z,100701.25
2022-10-02T23:26:29.033Z,100708.22
2022-10-02T23:29:06.571Z,100709.09
2022-10-02T23:31:35.451Z,100708.25
2022-10-02T23:34:12.545Z,100706.50
2022-10-02T23:36:45.909Z,100706.50
2022-10-02T23:39:15.677Z,100709.13
2022-10-02T23:41:47.830Z,100715.25
2022-10-02T23:44:23.200Z,100712.63
2022-10-02T23:47:00.505Z,100714.41
2022-10-02T23:49:32.756Z,100712.63
2022-10-02T23:52:06.607Z,100718.78
2022-10-02T23:54:44.446Z,100719.63
2022-10-02T23:57:36.051Z,100716.13
